Tiempo atmosférico en la estación meteorológica de Lugo Aeropuerto, Lugo (445 m.)



Fecha
DESCASC
Temp. máxima en grados centígrados (hora)
DESCASC
Temp. mínima en grados centígrados (hora)
DESCASC
Temp. media en grados centígrados
DESCASC
Racha de viento máxima en m/sg (hora)
DESCASC
Velocidad máxima media en intervalos de 10 minutos(hora)
DESCASC
Precipitaciones diarias en mm
DESCASC
Precipitaciones de 00:00 a 06:00 en mm
DESCASC
Precipitaciones de 06:00 a 12:00 en mm
DESCASC
Precipitaciones de 12:00 a 18:00 en mm
DESCASC
Precipitaciones de 18:00 a 24:00 en mm
DESCASC
14-07-2019 25.7 (17:20) 16.5 (00:00) 21.1 7.5 (00:10) 4.44 (00:10) 0 0 0 0 0
13-07-2019 22.7 (13:10) 16.5 (00:00) 19.6 8.89 (08:50) 4.44 (23:59) 5.4 0 0 2 3.4
12-07-2019 28.1 (16:00) 14.6 (00:00) 21.4 6.67 (17:10) 3.06 (14:40) 0 0 0 0 0
11-07-2019 30.3 (16:50) 10.6 (00:00) 20.4 7.22 (19:20) 3.89 (19:20) 0 0 0 0 0
10-07-2019 28.7 (15:30) 9.6 (00:00) 19.2 6.67 (19:50) 3.61 (20:00) 0 0 0 0 0
09-07-2019 24.1 (14:40) 12.6 (00:00) 18.4 8.06 (20:50) 4.17 (15:50) 0 0 0 0 0
08-07-2019 22.4 (15:50) 14.3 (00:00) 18.3 8.89 (12:00) 5 (12:10) 0 0 0 0 0
07-07-2019 24.4 (16:10) 11.5 (00:00) 17.9 8.33 (20:00) 3.61 (20:00) 0 0 0 0 0
06-07-2019 27 (16:00) 15.6 (00:00) 21.3 8.33 (19:00) 3.89 (19:10) 0 0 0 0 0
05-07-2019 28.5 (17:50) 14.5 (00:00) 21.5 8.06 (18:50) 3.33 (13:10) 0 0 0 0 0
04-07-2019 30.6 (15:10) 14.1 (00:00) 22.4 11.39 (16:30) 5.28 (16:30) 24.6 0 0 10.2 14.4
03-07-2019 24.8 (15:50) 14.7 (00:00) 19.7 8.06 (19:40) 4.72 (19:50) 0 0 0 0 0
02-07-2019 19.7 (14:30) 14.1 (08:40) 16.9 10.56 (04:00) 5.83 (13:20) 0 0 0 0 0
01-07-2019 19.8 (15:00) 14 (09:40) 16.9 10.56 (18:30) 5.28 (16:50) 0 0 0 0 0
30-06-2019 17.4 (13:30) 14.2 (00:00) 15.8 7.22 (11:00) 3.33 (11:10) 0 0 0 0 0
29-06-2019 26.8 (15:40) 14.4 (00:00) 20.6 7.5 (16:10) 3.61 (17:30) 0 0 0 0 0
28-06-2019 26.8 (16:30) 15.2 (00:00) 21 7.5 (18:10) 4.17 (18:10) 0 0 0 0 0
27-06-2019 25.3 (17:40) 13.7 (00:00) 19.5 5.56 (19:10) 2.5 (14:30) 0 0 0 0 0
26-06-2019 26.5 (17:30) 14.9 (00:00) 20.7 9.44 (14:50) 5.28 (14:10) 0 0 0 0 0
25-06-2019 23.5 (19:10) 13 (00:00) 18.3 7.5 (20:10) 3.61 (20:00) 0 0 0 0 0
24-06-2019 22.1 (16:30) 14.4 (00:00) 18.3 5.28 (16:30) 3.06 (16:50) 0.4 0 0.4 0 0
23-06-2019 24.3 (17:40) 12.1 (00:00) 18.2 8.89 (03:30) 4.17 (15:00) 10.6 9.8 0.8 0 0
22-06-2019 25.9 (15:30) 10.8 (00:00) 18.3 6.39 (16:10) 3.61 (14:50) 0 0 0 0 0
21-06-2019 21.3 (17:50) 12.1 (00:00) 16.7 6.94 (18:40) 3.61 (12:50) 0 0 0 0 0
20-06-2019 17.2 (17:30) 12.3 (00:00) 14.8 8.33 (12:50) 4.44 (18:50) 0 0 0 0 0
19-06-2019 19 (16:50) 13.1 (00:00) 16.1 7.5 (11:20) 3.61 (10:50) 0.6 0 0 0 0.6
18-06-2019 21.8 (15:50) 11.9 (00:00) 16.8 10.56 (16:20) 4.44 (20:10) 4 0 2.6 1.2 0.2
17-06-2019 21.5 (17:10) 12.3 (00:00) 16.9 3.89 (15:00) 1.94 (01:20) 0 0 0 0 0
16-06-2019 24.9 (17:30) 6.6 (00:00) 15.7 8.33 (18:50) 4.44 (18:50) 0 0 0 0 0

Gráficas

Temp. máximas Temp. mínimas Temp. medias Precipitaciones Rachas de viento máximas Velocidades máximas media en intervalos de 10 minutos

Datos horarios

Fecha y hora oficial Temperatura (ºC) Velocidad del viento (km/h) Dirección del viento Racha (km/h) Dirección de racha Precipitación (mm) Presión (hPa) Tendencia (hPa) Humedad (%)
2019-07-15 23:00:00 17.4 4 Nordeste 18 Este 0 966.5 0.8 87
2019-07-15 22:00:00 18 8 Nordeste 20 Este 0 966.3 0.8 84
2019-07-15 21:00:00 19.7 8 Nordeste 22 Este 0 965.9 0.4 75
2019-07-15 20:00:00 21.4 9 Nordeste 26 Nordeste 0 965.7 0.1 69
2019-07-15 19:00:00 22.4 10 Nordeste 26 Nordeste 0 965.5 -0.1 67
2019-07-15 18:00:00 23.5 12 Nordeste 26 Este 0 965.5 -0.1 65
2019-07-15 17:00:00 23.7 7 Nordeste 28 Nordeste 0 965.6 -0.1 68
2019-07-15 16:00:00 24.1 8 Nordeste 21 Nordeste 0 965.6 -0.3 68
2019-07-15 15:00:00 24.4 7 Nordeste 16 Norte 0 965.6 -0.2 68
2019-07-15 14:00:00 22.6 6 Nordeste 13 Este 0 965.7 0 72
2019-07-15 13:00:00 20.4 4 Noroeste 9 Norte 0 965.9 0.2 77
2019-07-15 12:00:00 18.8 4 Norte 15 Este 0 965.8 0.5 82
2019-07-15 11:00:00 18.2 6 Nordeste 14 Nordeste 0 965.7 1 88
2019-07-15 10:00:00 17.6 4 Nordeste 12 Este 0 965.7 1.1 90
2019-07-15 09:00:00 17 4 Nordeste 10 Nordeste 0 965.3 1 93
2019-07-15 08:00:00 16.6 3 Nordeste 13 Nordeste 0 964.7 0.3 96
2019-07-15 07:00:00 16.8 3 Nordeste 11 Nordeste 0 964.6 -0.5 95
2019-07-15 06:00:00 16.9 3 Nordeste 11 Este 0 964.3 -1 95
2019-07-15 05:00:00 16.8 6 Este 11 Este 0 964.4 -1.1 96
2019-07-15 04:00:00 16.7 4 Nordeste 10 Nordeste 0 965.1 -0.4 96
2019-07-15 03:00:00 16.8 2 Nordeste 11 Nordeste 0 965.3 -0.4 94
2019-07-15 02:00:00 16.7 4 Nordeste 11 Nordeste 0 965.5 -0.1 94
2019-07-15 01:00:00 17 4 Nordeste 14 Nordeste 0 965.5 0.2 93
2019-07-15 00:00:00 17 6 Nordeste 12 Nordeste 0 965.7 0.5 92
2019-07-14 23:00:00 17.3 2 Nordeste 10 Este 0 965.6 0.5 90
2019-07-14 22:00:00 18.2 2 Nordeste 22 Este 0 965.3 0.5 86
2019-07-14 21:00:00 19.8 7 Nordeste 23 Nordeste 0 965.2 0.2 79
2019-07-14 20:00:00 22.2 5 Nordeste 21 Nordeste 0 965.1 0.3 72
2019-07-14 19:00:00 22.8 7 Nordeste 26 Nordeste 0 964.8 0.1 72
2019-07-14 18:00:00 24.3 7 Nordeste 22 Nordeste 0 965 -0.1 68
2019-07-14 17:00:00 25.2 8 Nordeste 18 Este 0 964.8 -0.6 68
2019-07-14 16:00:00 25.1 6 Norte 17 Nordeste 0 964.7 -0.7 65
2019-07-14 15:00:00 24.5 5 Norte 14 Norte 0 965.1 -0.4 65
2019-07-14 14:00:00 23.4 8 Nordeste 17 Este 0 965.4 0 66
2019-07-14 13:00:00 21.9 5 Nordeste 15 Este 0 965.4 0.1 72
2019-07-14 12:00:00 20.1 9 Nordeste 17 Este 0 965.5 0.4 79
2019-07-14 11:00:00 19.3 12 Este 21 Nordeste 0 965.4 0.5 82
2019-07-14 10:00:00 18.6 9 Nordeste 18 Este 0 965.3 0.4 87
2019-07-14 09:00:00 17.4 6 Nordeste 12 Nordeste 0 965.1 0.4 92
2019-07-14 08:00:00 16.6 5 Nordeste 12 Norte 0 964.9 0 96
2019-07-14 07:00:00 16.6 4 Nordeste 16 Nordeste 0 964.9 -0.4 97
2019-07-14 06:00:00 16.9 5 Nordeste 12 Este 0 964.7 -0.9 96
2019-07-14 05:00:00 17 0 Calma 7 Nordeste 0 964.9 -1.1 97
2019-07-14 04:00:00 16.7 4 Nordeste 17 Nordeste 0 965.3 -1 98
2019-07-14 03:00:00 16.7 9 Nordeste 18 Nordeste 0 965.6 -0.4 98
2019-07-14 02:00:00 16.7 4 Nordeste 14 Norte 0 966 0.4 99
2019-07-14 01:00:00 16.7 3 Nordeste 27 Este 0 966.3 1 99
2019-07-14 00:00:00 16.6 16 Nordeste 31 Nordeste 0 966 0.4 99
2019-07-13 23:00:00 16.7 8 Nordeste 30 Nordeste 0 965.6 -1 99
2019-07-13 22:00:00 17.1 6 Nordeste 17 Nordeste 0.2 965.3 -1.5 97
2019-07-13 21:00:00 17.5 9 Este 18 Este 1 965.6 -1.4 98
2019-07-13 20:00:00 17.6 4 Este 13 Noroeste 1.2 966.6 1.9 97
2019-07-13 19:00:00 17.9 4 Oeste 9 Noroeste 1 966.8 2.4 97
2019-07-13 18:00:00 17.9 3 Nordeste 17 Nordeste 0 967 2.8 96
2019-07-13 17:00:00 17.9 8 Nordeste 24 Nordeste 0.8 964.7 0.5 94
2019-07-13 16:00:00 19.4 4 Norte 20 Este 1 964.4 -0.4 91
2019-07-13 15:00:00 19.8 9 Nordeste 23 Este 0.2 964.2 -0.5 85
2019-07-13 14:00:00 21.2 10 Nordeste 30 Nordeste 0 964.2 -0.8 77
2019-07-13 13:00:00 22.5 9 Nordeste 28 Este 0 964.8 -0.1 74
2019-07-13 12:00:00 21.1 9 Nordeste 31 Nordeste 0 964.7 -0.3 76
2019-07-13 11:00:00 18.5 14 Nordeste 30 Nordeste 0 965 0.1 84
2019-07-13 10:00:00 17.2 12 Nordeste 27 Nordeste 0 964.9 0.1 90
2019-07-13 09:00:00 16.7 14 Nordeste 32 Nordeste 0 965 0.1 91
2019-07-13 08:00:00 16.7 13 Nordeste 27 Este 0 964.9 -0.1 90
2019-07-13 07:00:00 16.7 14 Nordeste 30 Nordeste 0 964.8 -0.4 90
2019-07-13 06:00:00 17 9 Nordeste 18 Este 0 964.9 -0.6 90
2019-07-13 05:00:00 17 10 Nordeste 24 Nordeste 0 965 -1.2 92
2019-07-13 04:00:00 17.1 10 Nordeste 23 Nordeste 0 965.2 -1.8 92
2019-07-13 03:00:00 17.1 11 Nordeste 27 Nordeste 0 965.5 -1.7 93
2019-07-13 02:00:00 17 9 Nordeste 24 Nordeste 0 966.2 -1.2 93
2019-07-13 01:00:00 17.1 7 Nordeste 18 Nordeste 0 967 0.1 90
2019-07-13 00:00:00 17.1 4 Nordeste 12 Nordeste 0 967.2 1.1 88
2019-07-12 23:00:00 17.2 2 Norte 12 Norte 0 967.4 1.6 82
2019-07-12 22:00:00 18.5 3 Nordeste 15 Nordeste 0 966.9 1.4 73
2019-07-12 21:00:00 20.4 7 Nordeste 22 Nordeste 0 966.1 0.7 70
2019-07-12 20:00:00 22.4 9 Nordeste 23 Nordeste 0 965.8 0.3 68
2019-07-12 19:00:00 24.3 8 Nordeste 21 Nordeste 0 965.5 -0.1 68
2019-07-12 18:00:00 26.3 8 Nordeste 24 Este 0 965.4 -0.3 65
2019-07-12 17:00:00 27 6 Nordeste 22 Nordeste 0 965.5 -0.5 63
2019-07-12 16:00:00 28.1 6 Nordeste 20 Nordeste 0 965.6 -0.7 59
2019-07-12 15:00:00 27.3 6 Nordeste 20 Este 0 965.7 -0.5 61
2019-07-12 14:00:00 26.4 8 Nordeste 17 Nordeste 0 966 -0.4 62
2019-07-12 13:00:00 25.4 4 Nordeste 15 Este 0 966.3 -0.4 64
2019-07-12 12:00:00 23.2 5 Nordeste 13 Nordeste 0 966.2 -0.3 70
2019-07-12 11:00:00 20.1 4 Norte 10 Norte 0 966.4 0.2 80
2019-07-12 10:00:00 16.8 3 Nordeste 11 Este 0 966.7 0.9 93
2019-07-12 09:00:00 15.5 4 Este 12 Norte 0 966.5 1 98
2019-07-12 08:00:00 14.7 4 Nordeste 10 Nordeste 0 966.2 0.9 100
2019-07-12 07:00:00 14.9 5 Este 9 Este 0 965.8 0.3 98
2019-07-12 06:00:00 15.6 3 Este 5 Sudeste 0 965.5 -0.4 96
2019-07-12 05:00:00 15.8 0 Calma 7 Nordeste 0 965.3 -1.1 95
2019-07-12 04:00:00 15.8 3 Nordeste 8 Nordeste 0 965.5 -1.1 96
2019-07-12 03:00:00 15.8 0 Calma 5 Nordeste 0 965.9 -0.5 96
2019-07-12 02:00:00 15.5 2 Nordeste 5 Nordeste 0 966.4 0.1 95
2019-07-12 01:00:00 15.6 2 Oeste 4 Noroeste 0 966.6 0.9 87
2019-07-12 00:00:00 17.1 2 Oeste 5 Noroeste 0 966.4 1.2 88
2019-07-11 23:00:00 18.4 3 Nordeste 16 Este 0 966.3 1.5 86
2019-07-11 22:00:00 20.2 5 Nordeste 16 Nordeste 0 965.7 1.1 80
2019-07-11 21:00:00 23.1 6 Nordeste 18 Nordeste 0 965.2 0.8 65
2019-07-11 20:00:00 25.8 8 Nordeste 26 Este 0 964.8 0.4 54
2019-07-11 19:00:00 27.6 10 Nordeste 20 Nordeste 0 964.6 0.1 51
2019-07-11 18:00:00 29.6 9 Nordeste 16 Este 0 964.4 -0.5 42
2019-07-11 17:00:00 29.9 9 Nordeste 18 Este 0 964.4 -0.9 44
2019-07-11 16:00:00 29.7 6 Nordeste 15 Este 0 964.5 -1.1 43
2019-07-11 15:00:00 29 4 Nordeste 13 Noroeste 0 964.9 -0.7 37
2019-07-11 14:00:00 27.5 5 Noroeste 13 Este 0 965.3 -0.3 46
2019-07-11 13:00:00 24.7 5 Norte 12 Nordeste 0 965.6 0 61
2019-07-11 12:00:00 21.4 4 Norte 9 Oeste 0 965.6 0.1 72
2019-07-11 11:00:00 17.5 4 Este 7 Norte 0 965.6 0.4 88
2019-07-11 10:00:00 14.2 0 Calma 5 Norte 0 965.6 0.5 98
2019-07-11 09:00:00 11.8 2 Este 5 Norte 0 965.5 0.5 99
2019-07-11 08:00:00 10.9 0 Calma 3 Sur 0 965.2 0.2 97
2019-07-11 07:00:00 10.9 0 Calma 3 Norte 0 965.1 -0.1 96
2019-07-11 06:00:00 11.1 0 Calma 3 Sudeste 0 965 -0.5 96
2019-07-11 05:00:00 11.1 3 Sur 5 Sur 0 965 -0.7 92
2019-07-11 04:00:00 11.8 2 Sudeste 4 Sudeste 0 965.2 -0.6 93
2019-07-11 03:00:00 12.6 0 Calma 5 Sudeste 0 965.5 -0.3 89
2019-07-11 02:00:00 13.4 2 Sur 5 Sur 0 965.7 0.3 91
2019-07-11 01:00:00 14.5 2 Sur 4 Sur 0 965.8 0.7 88
2019-07-11 00:00:00 16 0 Calma 4 Oeste 0 965.8 0.9 86
2019-07-10 23:00:00 17.9 0 Calma 6 Este 0 965.4 0.6 81
2019-07-10 22:00:00 20 3 Nordeste 12 Norte 0 965.1 0.4 76
2019-07-10 21:00:00 22.6 5 Nordeste 17 Este 0 964.9 0.1 70
2019-07-10 20:00:00 24.6 13 Nordeste 24 Nordeste 0 964.8 -0.3 62
2019-07-10 19:00:00 26.5 8 Nordeste 17 Nordeste 0 964.7 -0.5 56
2019-07-10 18:00:00 27 10 Nordeste 19 Nordeste 0 964.8 -0.7 54
2019-07-10 17:00:00 27.6 8 Nordeste 20 Nordeste 0 965.1 -1 54
2019-07-10 16:00:00 28.4 9 Nordeste 19 Nordeste 0 965.2 -1.2 53
2019-07-10 15:00:00 27.6 5 Norte 11 Noroeste 0 965.5 -0.8 44
2019-07-10 14:00:00 26.3 6 Nordeste 13 Nordeste 0 966.1 -0.7 51
2019-07-10 13:00:00 25 5 Norte 12 Nordeste 0 966.4 -0.6 59
2019-07-10 12:00:00 22.3 5 Oeste 10 Noroeste 0 966.3 -0.5 64
2019-07-10 11:00:00 19.6 3 Oeste 7 Noroeste 0 966.8 0.3 72
2019-07-10 10:00:00 17 3 Sudoeste 7 Noroeste 0 967 0.5 83
2019-07-10 09:00:00 13.9 0 Calma 10 Sudoeste 0 966.8 0.4 91
2019-07-10 08:00:00 10.7 2 Sudoeste 6 Sur 0 966.5 0.1 96
2019-07-10 07:00:00 9.7 3 Este 6 Este 0 966.5 -0.3 96
2019-07-10 06:00:00 10.5 3 Sudeste 5 Sudeste 0 966.4 -0.7 97
2019-07-10 05:00:00 11.7 2 Sudeste 4 Sudeste 0 966.4 -1 99
2019-07-10 04:00:00 11.6 0 Calma 5 Sudeste 0 966.8 -0.9 95
2019-07-10 03:00:00 12 2 Nordeste 6 Sudeste 0 967.1 -0.6 97
2019-07-10 02:00:00 12.6 0 Calma 5 Este 0 967.4 -0.1 93
2019-07-10 01:00:00 13.2 2 Este 5 Noroeste 0 967.7 0.9 93
2019-07-10 00:00:00 14.4 0 Calma 8 Norte 0 967.7 1.3 90
2019-07-09 23:00:00 15.3 3 Nordeste 22 Nordeste 0 967.5 1.4 89
2019-07-09 22:00:00 16.8 12 Nordeste 26 Nordeste 0 966.8 0.8 82
2019-07-09 21:00:00 19.4 9 Nordeste 29 Nordeste 0 966.4 0.2 75
2019-07-09 20:00:00 21.5 10 Nordeste 25 Nordeste 0 966.1 -0.5 68
2019-07-09 19:00:00 22.7 10 Nordeste 26 Este 0 966 -0.7 65
2019-07-09 18:00:00 22.8 13 Nordeste 23 Este 0 966.2 -0.7 65
2019-07-09 17:00:00 23 10 Nordeste 26 Este 0 966.6 -0.5 67
2019-07-09 16:00:00 22.8 14 Nordeste 29 Nordeste 0 966.7 -0.4 68
2019-07-09 15:00:00 23.5 12 Nordeste 24 Nordeste 0 966.9 -0.3 64
2019-07-09 14:00:00 23.3 9 Nordeste 21 Nordeste 0 967.1 0 66
2019-07-09 13:00:00 21.7 9 Nordeste 22 Nordeste 0 967.1 -0.1 68
2019-07-09 12:00:00 20.6 8 Nordeste 18 Este 0 967.2 0.1 76
2019-07-09 11:00:00 18.4 4 Nordeste 14 Nordeste 0 967.1 0.4 81
2019-07-09 10:00:00 16.9 9 Nordeste 17 Nordeste 0 967.2 0.9 87
2019-07-09 09:00:00 15.7 0 Calma 4 Sudeste 0 967.1 0.9 93
2019-07-09 08:00:00 14.5 0 Calma 6 Sudeste 0 966.7 0.4 94
2019-07-09 07:00:00 14.2 0 Calma 7 Noroeste 0 966.3 -0.3 94
2019-07-09 06:00:00 13.2 2 Este 5 Nordeste 0 966.2 -0.4 97
2019-07-09 05:00:00 13 2 Sudoeste 4 Sudoeste 0 966.3 -0.4 97
2019-07-09 04:00:00 12.8 0 Calma 9 Nordeste 0 966.6 -0.2 92
2019-07-09 03:00:00 13.3 5 Nordeste 15 Este 0 966.6 0 94
2019-07-09 02:00:00 13.8 2 Nordeste 10 Nordeste 0 966.7 0 94
2019-07-09 01:00:00 13.8 4 Nordeste 14 Este 0 966.8 0.9 93
2019-07-09 00:00:00 14.3 3 Nordeste 8 Nordeste 0 966.6 1.4 91
2019-07-08 23:00:00 15.4 4 Nordeste 20 Este 0 966.7 2.1 90
2019-07-08 22:00:00 15.9 5 Nordeste 21 Nordeste 0 965.9 2 93
2019-07-08 21:00:00 16.4 4 Norte 22 Nordeste 0 965.2 1.8 95
2019-07-08 20:00:00 16.8 6 Nordeste 23 Este 0 964.6 1.5 94
2019-07-08 19:00:00 17.9 9 Nordeste 26 Nordeste 0 963.9 0.4 89
2019-07-08 18:00:00 18.3 8 Nordeste 26 Este 0 963.4 -0.6 87
2019-07-08 17:00:00 21.8 9 Nordeste 29 Nordeste 0 963.1 -1.1 74
2019-07-08 16:00:00 22.1 11 Nordeste 30 Este 0 963.5 -0.9 69
2019-07-08 15:00:00 21.9 14 Nordeste 26 Nordeste 0 964 0.1 68
2019-07-08 14:00:00 20.2 11 Nordeste 27 Este 0 964.2 0.5 75
2019-07-08 13:00:00 18 9 Nordeste 31 Nordeste 0 964.4 0.7 84
2019-07-08 12:00:00 18.2 17 Nordeste 32 Nordeste 0 963.9 0.3 81
2019-07-08 11:00:00 17 12 Nordeste 24 Este 0 963.7 0.3 86
2019-07-08 10:00:00 16.6 5 Nordeste 25 Nordeste 0 963.7 0.4 89
2019-07-08 09:00:00 15.4 8 Nordeste 20 Este 0 963.6 0.5 93
2019-07-08 08:00:00 14.9 8 Nordeste 22 Nordeste 0 963.4 0.5 95
2019-07-08 07:00:00 14.7 10 Nordeste 22 Este 0 963.3 0.3 96
2019-07-08 06:00:00 14.8 8 Nordeste 20 Nordeste 0 963.1 -0.5 94
2019-07-08 05:00:00 14.7 6 Nordeste 17 Nordeste 0 962.9 -1.2 93
2019-07-08 04:00:00 14.8 4 Nordeste 15 Nordeste 0 963 -1.4 93
2019-07-08 03:00:00 14.7 8 Nordeste 17 Este 0 963.6 -0.9 92
2019-07-08 02:00:00 14.9 8 Nordeste 25 Este 0 964.1 -0.3 93
2019-07-08 01:00:00 14.9 8 Nordeste 25 Norte 0 964.4 0.3 91
2019-07-08 00:00:00 14.9 9 Nordeste 25 Nordeste 0 964.5 0.5 91
2019-07-07 23:00:00 15.1 10 Nordeste 27 Nordeste 0 964.4 0.5 91
2019-07-07 22:00:00 15.4 10 Nordeste 20 Este 0 964.1 0.3 90
2019-07-07 21:00:00 16 8 Nordeste 25 Nordeste 0 964 0.2 88
2019-07-07 20:00:00 16.7 13 Nordeste 30 Nordeste 0 963.9 0.2 86
2019-07-07 19:00:00 18.5 13 Nordeste 26 Nordeste 0 963.8 0.1 79
2019-07-07 18:00:00 21 9 Nordeste 23 Este 0 963.8 -0.2 73
2019-07-07 17:00:00 23.1 7 Nordeste 23 Este 0 963.7 -0.6 66
2019-07-07 16:00:00 24.3 6 Nordeste 20 Este 0 963.7 -1.2 65
2019-07-07 15:00:00 23.7 8 Nordeste 18 Nordeste 0 964 -1 66
2019-07-07 14:00:00 21.9 8 Nordeste 16 Nordeste 0 964.3 -0.6 69
2019-07-07 13:00:00 21.1 4 Norte 12 Norte 0 964.9 0.1 70
2019-07-07 12:00:00 18.7 6 Nordeste 15 Nordeste 0 965 0.2 76
2019-07-07 11:00:00 17.1 5 Nordeste 10 Nordeste 0 964.9 0.2 84
2019-07-07 10:00:00 15.8 7 Este 15 Nordeste 0 964.8 0.4 88
2019-07-07 09:00:00 14.7 6 Nordeste 14 Nordeste 0 964.8 0.4 94
2019-07-07 08:00:00 13.8 0 Calma 7 Este 0 964.7 0.2 97
2019-07-07 07:00:00 12.5 2 Este 7 Este 0 964.4 -0.3 99
2019-07-07 06:00:00 11.5 3 Sur 4 Sur 0 964.4 -0.5 95
2019-07-07 05:00:00 11.9 0 Calma 5 Sudeste 0 964.5 -0.7 95
2019-07-07 04:00:00 12.6 0 Calma 4 Sur 0 964.7 -0.9 92
2019-07-07 03:00:00 13.2 2 Sur 4 Sudoeste 0 964.9 -0.9 92
2019-07-07 02:00:00 14.5 2 Sudeste 4 Sudeste 0 965.2 -0.3 89
2019-07-07 01:00:00 15.9 2 Oeste 7 Noroeste 0 965.6 0.7 85
2019-07-07 00:00:00 16.5 0 Calma 8 Norte 0 965.8 1.2 85
2019-07-06 23:00:00 16.9 3 Norte 11 Nordeste 0 965.5 1.3 81
2019-07-06 22:00:00 17.9 4 Nordeste 15 Este 0 964.9 1.1 78
2019-07-06 21:00:00 19.1 5 Nordeste 26 Este 0 964.6 1.3 75
2019-07-06 20:00:00 20.5 11 Nordeste 28 Este 0 964.2 1.1 73
2019-07-06 19:00:00 22 11 Nordeste 30 Este 0 963.8 0.6 69
2019-07-06 18:00:00 23.1 13 Nordeste 26 Nordeste 0 963.3 -0.3 69
2019-07-06 17:00:00 26.1 8 Noroeste 18 Noroeste 0 963.1 -0.9 52
2019-07-06 16:00:00 26.9 6 Oeste 18 Oeste 0 963.2 -0.7 41
2019-07-06 15:00:00 25.7 8 Sudoeste 17 Oeste 0 963.6 -0.5 45
2019-07-06 14:00:00 24.4 8 Oeste 18 Oeste 0 964 -0.2 58
2019-07-06 13:00:00 22.6 5 Oeste 17 Sudoeste 0 963.9 -0.5 65
2019-07-06 12:00:00 20.6 6 Sur 11 Sudoeste 0 964.1 -0.1 73
2019-07-06 11:00:00 18.3 4 Oeste 8 Oeste 0 964.2 0.2 84
2019-07-06 10:00:00 17.1 5 Noroeste 10 Oeste 0 964.4 0.2 92
2019-07-06 09:00:00 16.1 2 Sur 8 Oeste 0 964.2 -0.2 95
2019-07-06 08:00:00 15.9 0 Calma 3 Sur 0 964 -0.7 96
2019-07-06 07:00:00 15.8 0 Calma 5 Oeste 0 964.2 -1 97
2019-07-06 06:00:00 15.9 2 Oeste 7 Oeste 0 964.4 -1.4 94
2019-07-06 05:00:00 16.8 0 Calma 3 Sudeste 0 964.7 -1.5 92
2019-07-06 04:00:00 17.3 2 Sudeste 4 Sudeste 0 965.2 -1.2 90
2019-07-06 03:00:00 17.5 0 Calma 3 Sudeste 0 965.8 -0.6 88
2019-07-06 02:00:00 17.6 2 Este 5 Sudoeste 0 966.2 -0.1 87
2019-07-06 01:00:00 17.9 3 Noroeste 9 Noroeste 0 966.4 0.4 84
2019-07-06 00:00:00 18.3 3 Noroeste 8 Noroeste 0 966.4 0.8 83
2019-07-05 23:00:00 18.6 0 Calma 10 Norte 0 966.3 1.1 84
2019-07-05 22:00:00 19.1 5 Norte 17 Noroeste 0 966 1.6 78
2019-07-05 21:00:00 20.6 5 Noroeste 15 Norte 0 965.6 2 73
2019-07-05 20:00:00 21.7 3 Norte 24 Noroeste 0 965.2 1.4 75
2019-07-05 19:00:00 23.8 10 Norte 29 Norte 0 964.4 0.1 67
2019-07-05 18:00:00 28.3 6 Oeste 15 Noroeste 0 963.6 -1.1 46
2019-07-05 17:00:00 28.1 5 Nordeste 15 Noroeste 0 963.8 -1.1 45
2019-07-05 16:00:00 27.6 8 Oeste 17 Oeste 0 964.3 -0.9 47
2019-07-05 15:00:00 26.8 10 Oeste 20 Oeste 0 964.7 -0.4 51
2019-07-05 14:00:00 25.2 7 Oeste 21 Oeste 0 964.9 -0.5 57
2019-07-05 13:00:00 23.8 10 Sudoeste 19 Sudoeste 0 965.2 -0.3 63
2019-07-05 12:00:00 22 5 Sudoeste 13 Sudoeste 0 965.1 -0.4 75
2019-07-05 11:00:00 19.8 4 Sur 10 Sudoeste 0 965.4 0 82
2019-07-05 10:00:00 17.3 3 Sur 5 Sudoeste 0 965.5 0.7 92
2019-07-05 09:00:00 15.5 0 Calma 7 Sur 0 965.5 0.5 96
2019-07-05 08:00:00 14.9 2 Sur 10 Sudoeste 0 965.4 0.4 98
2019-07-05 07:00:00 14.6 5 Oeste 10 Sudoeste 0 964.8 -0.1 99
2019-07-05 06:00:00 14.8 4 Oeste 7 Oeste 0 965 -0.3 99
2019-07-05 05:00:00 15.2 4 Oeste 6 Sudoeste 0 965 -0.7 98
2019-07-05 04:00:00 15.1 3 Oeste 8 Nordeste 0 964.9 -0.7 98
2019-07-05 03:00:00 15.1 0 Calma 7 Sudoeste 0 965.3 -0.1 95
2019-07-05 02:00:00 15.8 3 Oeste 4 Sudoeste 0 965.7 1.1 96
2019-07-05 01:00:00 16.4 0 Calma 8 Oeste 0 965.6 1.4 95
2019-07-05 00:00:00 16.7 4 Oeste 14 Sudeste 0 965.4 0.5 95
2019-07-04 23:00:00 17.3 9 Este 31 Nordeste 4 964.6 0.4 94
2019-07-04 22:00:00 17.9 12 Nordeste 26 Nordeste 2 964.2 0.7 95
2019-07-04 21:00:00 19 9 Noroeste 21 Noroeste 2.6 964.9 1.6 96
2019-07-04 20:00:00 19.7 7 Este 15 Noroeste 5.8 964.2 1.6 96
2019-07-04 19:00:00 19.9 0 Calma 9 Norte 0 963.5 0.9 95
2019-07-04 18:00:00 19.2 5 Oeste 21 Oeste 0.2 963.3 0.5 94
2019-07-04 17:00:00 18.7 6 Sudeste 41 Este 10 962.6 -0.5 87
2019-07-04 16:00:00 28.3 4 Norte 19 Oeste 0 962.6 -0.5 43
2019-07-04 15:00:00 30.4 10 Oeste 19 Oeste 0 962.8 -0.3 35
2019-07-04 14:00:00 28.6 9 Sudoeste 20 Sudoeste 0 963.1 0.1 48
2019-07-04 13:00:00 24.6 4 Noroeste 9 Nordeste 0 963.1 0.2 69
2019-07-04 12:00:00 22.3 3 Nordeste 10 Sudoeste 0 963.1 0.8 73
2019-07-04 11:00:00 20.6 5 Sudoeste 9 Oeste 0 963 0.8 77
2019-07-04 10:00:00 17.8 3 Sudoeste 9 Oeste 0 962.9 1 90
2019-07-04 09:00:00 16.9 0 Calma 6 Nordeste 0 962.3 0.3 94
2019-07-04 08:00:00 15.3 2 Este 8 Nordeste 0 962.2 0.2 98
2019-07-04 07:00:00 14.2 2 Sudeste 6 Sudeste 0 961.9 -0.1 97
2019-07-04 06:00:00 14.7 2 Sudoeste 10 Nordeste 0 962 -0.3 97
2019-07-04 05:00:00 15.2 5 Nordeste 13 Este 0 962 -0.7 97
2019-07-04 04:00:00 15.7 0 Calma 12 Nordeste 0 962 -0.6 97
2019-07-04 03:00:00 16.1 4 Nordeste 18 Este 0 962.3 -0.9 96
2019-07-04 02:00:00 16.8 9 Nordeste 27 Nordeste 0 962.7 -0.3 95
2019-07-04 01:00:00 16.8 9 Nordeste 19 Nordeste 0 962.6 -0.1 95
2019-07-04 00:00:00 17 5 Nordeste 10 Nordeste 0 963.2 0.5 93
2019-07-03 23:00:00 17.7 3 Noroeste 20 Nordeste 0 963 0.2 89
2019-07-03 22:00:00 18 8 Nordeste 23 Nordeste 0 962.7 0 88
2019-07-03 21:00:00 19 8 Nordeste 27 Este 0 962.7 0 85
2019-07-03 20:00:00 20 13 Nordeste 29 Nordeste 0 962.8 -0.1 81
2019-07-03 19:00:00 21.6 8 Nordeste 21 Nordeste 0 962.7 -0.3 76
2019-07-03 18:00:00 23.2 7 Nordeste 23 Nordeste 0 962.7 -0.4 72
2019-07-03 17:00:00 24.2 8 Nordeste 28 Este 0 962.9 -0.4 68
2019-07-03 16:00:00 24.8 8 Nordeste 20 Este 0 963 -0.5 65
2019-07-03 15:00:00 23.5 10 Nordeste 24 Este 0 963.1 -0.4 68
2019-07-03 14:00:00 22.9 10 Nordeste 23 Nordeste 0 963.3 0.1 70
2019-07-03 13:00:00 21.6 8 Nordeste 23 Nordeste 0 963.5 0.4 72
2019-07-03 12:00:00 19.7 8 Nordeste 21 Nordeste 0 963.5 0.8 76
2019-07-03 11:00:00 17.7 9 Nordeste 18 Nordeste 0 963.2 0.8 83
2019-07-03 10:00:00 17 8 Nordeste 22 Nordeste 0 963.1 0.5 87
2019-07-03 09:00:00 16.6 6 Nordeste 18 Nordeste 0 962.7 0 88
2019-07-03 08:00:00 15.2 7 Nordeste 21 Nordeste 0 962.4 -0.6 93
2019-07-03 07:00:00 14.8 6 Nordeste 22 Este 0 962.6 -1 94
2019-07-03 06:00:00 14.8 10 Nordeste 21 Este 0 962.7 -1.4 95
2019-07-03 05:00:00 14.9 8 Nordeste 21 Nordeste 0 963 -1.6 94
2019-07-03 04:00:00 14.9 10 Nordeste 24 Nordeste 0 963.6 -1.4 95
2019-07-03 03:00:00 14.9 6 Nordeste 20 Este 0 964.1 -1.1 94
2019-07-03 02:00:00 14.8 8 Nordeste 24 Nordeste 0 964.6 -1.1 95
2019-07-03 01:00:00 14.8 9 Nordeste 28 Nordeste 0 965 -0.3 95
2019-07-03 00:00:00 14.7 9 Nordeste 27 Nordeste 0 965.2 0 94
2019-07-02 23:00:00 14.7 8 Nordeste 27 Nordeste 0 965.7 0.5 96
2019-07-02 22:00:00 14.8 10 Nordeste 32 Nordeste 0 965.3 0 96
2019-07-02 21:00:00 15.3 13 Nordeste 33 Este 0 965.2 -0.3 94
2019-07-02 20:00:00 15.8 8 Nordeste 28 Este 0 965.2 -0.5 92
2019-07-02 19:00:00 16.2 11 Nordeste 31 Nordeste 0 965.3 -0.7 91
2019-07-02 18:00:00 17.1 15 Nordeste 31 Este 0 965.5 -0.8 87
2019-07-02 17:00:00 17.3 11 Nordeste 28 Nordeste 0 965.7 -0.8 85
2019-07-02 16:00:00 17.6 8 Nordeste 34 Este 0 966 -0.8 86
2019-07-02 15:00:00 18.6 10 Nordeste 31 Este 0 966.3 -0.7 81
2019-07-02 14:00:00 18.9 15 Nordeste 36 Nordeste 0 966.5 -0.6 77
2019-07-02 13:00:00 17.6 17 Nordeste 37 Nordeste 0 966.8 -0.5 82
2019-07-02 12:00:00 16.5 14 Nordeste 32 Nordeste 0 967 -0.4 85
2019-07-02 11:00:00 16 13 Nordeste 30 Nordeste 0 967.1 -0.1 88
2019-07-02 10:00:00 14.7 13 Nordeste 29 Nordeste 0 967.3 0.3 92
2019-07-02 09:00:00 14.1 13 Nordeste 30 Nordeste 0 967.4 0.2 94
2019-07-02 08:00:00 14.2 11 Nordeste 31 Nordeste 0 967.2 -0.3 94
2019-07-02 07:00:00 14.2 10 Nordeste 29 Nordeste 0 967 -1 94
2019-07-02 06:00:00 14.3 12 Nordeste 31 Nordeste 0 967.2 -1.4 92
2019-07-02 05:00:00 14.4 11 Nordeste 34 Este 0 967.5 -1.4 92
2019-07-02 04:00:00 14.4 15 Nordeste 38 Nordeste 0 968 -1.2 93
2019-07-02 03:00:00 14.4 14 Nordeste 31 Nordeste 0 968.6 -0.8 94
2019-07-02 02:00:00 14.8 10 Nordeste 23 Nordeste 0 968.9 -0.4 92
2019-07-02 01:00:00 15 10 Nordeste 28 Nordeste 0 969.2 0.4 90
2019-07-02 00:00:00 15.2 9 Nordeste 26 Este 0 969.4 0.2 88
2019-07-01 23:00:00 15.2 9 Nordeste 28 Nordeste 0 969.3 0.3 87
2019-07-01 22:00:00 15.2 8 Nordeste 27 Este 0 968.8 -0.4 88
2019-07-01 21:00:00 15.3 10 Nordeste 28 Nordeste 0 969.2 -0.3 89
2019-07-01 20:00:00 15.3 13 Nordeste 35 Nordeste 0 969 -0.5 89
2019-07-01 19:00:00 15.7 10 Nordeste 38 Nordeste 0 969.2 -0.5 87
2019-07-01 18:00:00 16.5 15 Nordeste 36 Nordeste 0 969.5 -0.2 83
2019-07-01 17:00:00 17.8 16 Nordeste 34 Nordeste 0 969.5 -0.5 77
2019-07-01 16:00:00 19.4 12 Nordeste 32 Este 0 969.7 -0.4 71
2019-07-01 15:00:00 19.7 11 Nordeste 32 Este 0 969.7 -0.5 69
2019-07-01 14:00:00 18.9 12 Nordeste 30 Nordeste 0 970 0 70
2019-07-01 13:00:00 18 12 Nordeste 28 Este 0 970.1 0 76
2019-07-01 12:00:00 16.1 9 Nordeste 27 Nordeste 0 970.2 0.4 81
2019-07-01 11:00:00 14.8 7 Nordeste 19 Nordeste 0 970 0.5 90
2019-07-01 10:00:00 14.2 8 Nordeste 21 Nordeste 0 970.1 1 93
2019-07-01 09:00:00 14.4 4 Nordeste 24 Nordeste 0 969.8 0.9 95
2019-07-01 08:00:00 14.4 8 Nordeste 23 Nordeste 0 969.5 0.5 92
2019-07-01 07:00:00 14.3 9 Nordeste 24 Nordeste 0 969.1 -0.1 94
2019-07-01 06:00:00 14.4 10 Nordeste 21 Nordeste 0 968.9 -0.6 95
2019-07-01 05:00:00 14.8 7 Nordeste 19 Este 0 969 -0.9 90
2019-07-01 04:00:00 14.6 7 Nordeste 17 Nordeste 0 969.2 -1 94
2019-07-01 03:00:00 14.6 6 Nordeste 17 Nordeste 0 969.5 -0.7 92
2019-07-01 02:00:00 14.7 4 Nordeste 17 Nordeste 0 969.9 0 92
2019-07-01 01:00:00 14.6 5 Nordeste 15 Este 0 970.2 0.8 92
2019-07-01 00:00:00 14.7 5 Nordeste 12 Nordeste 0 970.2 1 95
2019-06-30 23:00:00 15.1 3 Nordeste 12 Este 0 969.9 1.1 94
2019-06-30 22:00:00 15.1 6 Nordeste 18 Este 0 969.4 0.8 95
2019-06-30 21:00:00 15.5 9 Nordeste 17 Nordeste 0 969.2 0.4 92
2019-06-30 20:00:00 15.9 4 Nordeste 20 Nordeste 0 968.8 0.3 93
2019-06-30 19:00:00 16 10 Nordeste 18 Nordeste 0 968.6 0.3 92
2019-06-30 18:00:00 16.6 5 Nordeste 17 Nordeste 0 968.8 0.9 89
2019-06-30 17:00:00 16.7 6 Nordeste 18 Nordeste 0 968.5 0.7 89
2019-06-30 16:00:00 16.9 8 Nordeste 19 Nordeste 0 968.3 0.7 88
2019-06-30 15:00:00 17.1 8 Nordeste 20 Nordeste 0 967.9 0.4 87
2019-06-30 14:00:00 17.3 7 Nordeste 15 Nordeste 0 967.8 0.6 87
2019-06-30 13:00:00 17.2 5 Nordeste 21 Nordeste 0 967.6 0.3 86
2019-06-30 12:00:00 16.7 6 Nordeste 25 Nordeste 0 967.5 0.7 88
2019-06-30 11:00:00 16 11 Nordeste 26 Nordeste 0 967.2 0.4 90
2019-06-30 10:00:00 15.3 11 Nordeste 20 Este 0 967.3 0.6 92
2019-06-30 09:00:00 14.8 8 Nordeste 17 Nordeste 0 966.8 0.4 95
2019-06-30 08:00:00 14.3 7 Nordeste 18 Nordeste 0 966.8 0.1 97
2019-06-30 07:00:00 14.3 8 Nordeste 20 Nordeste 0 966.7 0 96
2019-06-30 06:00:00 14.6 7 Nordeste 18 Nordeste 0 966.4 -0.6 98
2019-06-30 05:00:00 14.6 4 Nordeste 17 Este 0 966.7 -0.5 98
2019-06-30 04:00:00 14.7 5 Nordeste 17 Este 0 966.7 -1 95
2019-06-30 03:00:00 14.9 6 Nordeste 18 Este 0 967 -0.9 93
2019-06-30 02:00:00 15 7 Nordeste 18 Nordeste 0 967.2 -0.7 94
2019-06-30 01:00:00 15.1 5 Nordeste 20 Nordeste 0 967.7 0.2 94
2019-06-30 00:00:00 15.3 4 Nordeste 17 Nordeste 0 967.9 0.7 93
2019-06-29 23:00:00 15.4 8 Nordeste 18 Este 0 967.9 1.1 94
2019-06-29 22:00:00 16.3 6 Nordeste 20 Este 0 967.5 1.2 90
2019-06-29 21:00:00 17.5 8 Nordeste 21 Nordeste 0 967.2 1 85
2019-06-29 20:00:00 20.4 5 Nordeste 21 Nordeste 0 966.8 0.8 75
2019-06-29 19:00:00 22.5 8 Nordeste 19 Nordeste 0 966.3 0.6 69
2019-06-29 18:00:00 23 11 Nordeste 25 Nordeste 0 966.2 0.5 70
2019-06-29 17:00:00 25.5 10 Nordeste 27 Noroeste 0 966 0.1 62
2019-06-29 16:00:00 26 9 Noroeste 19 Norte 0 965.7 -0.3 61
2019-06-29 15:00:00 26.5 7 Noroeste 18 Noroeste 0 965.7 -0.1 61
2019-06-29 14:00:00 25.3 6 Oeste 16 Noroeste 0 965.9 0.2 60
2019-06-29 13:00:00 23.8 5 Noroeste 13 Sudoeste 0 966 0.8 68
2019-06-29 12:00:00 20.9 5 Noroeste 11 Oeste 0 965.8 0.7 74
2019-06-29 11:00:00 19.2 5 Noroeste 9 Noroeste 0 965.7 0.8 79
2019-06-29 10:00:00 16.7 5 Este 9 Este 0 965.2 0.3 86
2019-06-29 09:00:00 14.9 5 Oeste 10 Oeste 0 965.1 0.2 94
2019-06-29 08:00:00 14.4 6 Oeste 8 Oeste 0 964.9 0 95
2019-06-29 07:00:00 14.8 2 Oeste 6 Sudoeste 0 964.9 0.1 94
2019-06-29 06:00:00 15.1 3 Sudoeste 6 Sudoeste 0 964.9 -0.2 92
2019-06-29 05:00:00 15.3 4 Sudoeste 6 Oeste 0 964.9 -0.6 93
2019-06-29 04:00:00 15.3 2 Oeste 5 Oeste 0 964.8 -1 93
2019-06-29 03:00:00 15.2 0 Calma 3 Nordeste 0 965.1 -1 92
2019-06-29 02:00:00 14.7 0 Calma 5 Este 0 965.5 -0.9 91
2019-06-29 01:00:00 14.9 0 Calma 5 Nordeste 0 965.8 -0.4 89
2019-06-29 00:00:00 15.4 2 Nordeste 9 Nordeste 0 966.1 0.1 87
2019-06-28 23:00:00 16.1 3 Nordeste 10 Nordeste 0 966.4 0.8 84
2019-06-28 22:00:00 17.2 5 Nordeste 19 Este 0 966.2 0.5 79
2019-06-28 21:00:00 19.5 4 Norte 21 Nordeste 0 966 0.5 71
2019-06-28 20:00:00 21.9 9 Nordeste 22 Nordeste 0 965.6 -0.2 64
2019-06-28 19:00:00 23.5 10 Nordeste 27 Este 0 965.7 -0.4 65
2019-06-28 18:00:00 24.7 12 Nordeste 22 Nordeste 0 965.5 -1.1 63
2019-06-28 17:00:00 25.6 10 Nordeste 22 Nordeste 0 965.8 -1.1 63
2019-06-28 16:00:00 26.5 6 Nordeste 18 Este 0 966.1 -1 61
2019-06-28 15:00:00 25.3 6 Norte 15 Nordeste 0 966.6 -0.7 63
2019-06-28 14:00:00 23.7 6 Norte 17 Noroeste 0 966.9 -0.5 67
2019-06-28 13:00:00 22.3 3 Nordeste 13 Este 0 967.1 -0.7 68
2019-06-28 12:00:00 21.2 5 Nordeste 13 Nordeste 0 967.3 -0.4 72
2019-06-28 11:00:00 19.6 5 Nordeste 9 Este 0 967.4 -0.5 77
2019-06-28 10:00:00 17.6 3 Norte 6 Noroeste 0 967.8 -0.1 83
2019-06-28 09:00:00 16.1 2 Nordeste 5 Oeste 0 967.7 0 83
2019-06-28 08:00:00 15.4 2 Oeste 5 Oeste 0 967.9 0.2 85
2019-06-28 07:00:00 15.2 4 Oeste 5 Sudoeste 0 967.9 -0.1 87
2019-06-28 06:00:00 15.5 0 Calma 3 Oeste 0 967.7 -0.4 86
2019-06-28 05:00:00 15.4 2 Sudoeste 3 Oeste 0 967.7 -0.3 87
2019-06-28 04:00:00 16.4 3 Nordeste 4 Este 0 968 0.1 83
2019-06-28 03:00:00 17 0 Calma 5 Norte 0 968.1 0.4 79
2019-06-28 02:00:00 17.7 3 Norte 8 Norte 0 968 0.7 81
2019-06-28 01:00:00 18.4 3 Norte 6 Noroeste 0 967.9 1.2 82
2019-06-28 00:00:00 18.8 0 Calma 6 Norte 0 967.7 1.1 80
2019-06-27 23:00:00 19.4 2 Norte 8 Norte 0 967.3 1.3 79
2019-06-27 22:00:00 19.6 4 Norte 9 Noroeste 0 966.7 1.2 78
2019-06-27 21:00:00 20.3 3 Noroeste 10 Norte 0 966.6 1.5 77
2019-06-27 20:00:00 20.7 5 Noroeste 20 Noroeste 0 966 0.8 76
2019-06-27 19:00:00 22.7 6 Oeste 20 Norte 0 965.5 0.3 71
2019-06-27 18:00:00 24.1 5 Noroeste 17 Oeste 0 965.1 0.2 66
2019-06-27 17:00:00 23.2 6 Oeste 12 Oeste 0 965.2 0.4 70
2019-06-27 16:00:00 22.5 6 Oeste 17 Sudoeste 0 965.2 0.6 73
2019-06-27 15:00:00 24 8 Oeste 16 Oeste 0 964.9 0 66
2019-06-27 14:00:00 24.2 8 Oeste 17 Oeste 0 964.8 -0.1 65
2019-06-27 13:00:00 23.8 5 Oeste 14 Sudoeste 0 964.6 -0.2 65
2019-06-27 12:00:00 21.9 4 Oeste 10 Sudoeste 0 964.9 0.1 69
2019-06-27 11:00:00 19.1 5 Oeste 10 Oeste 0 964.9 -0.3 78
2019-06-27 10:00:00 18.8 3 Noroeste 6 Sudoeste 0 964.8 -0.3 78
2019-06-27 09:00:00 16.7 3 Este 5 Nordeste 0 964.8 -0.6 85
2019-06-27 08:00:00 14.7 2 Sudeste 4 Sudeste 0 965.2 -0.2 93
2019-06-27 07:00:00 14.4 0 Calma 3 Sudoeste 0 965.1 -0.1 92
2019-06-27 06:00:00 13.9 0 Calma 5 Oeste 0 965.4 -0.1 94
2019-06-27 05:00:00 14.2 0 Calma 5 Norte 0 965.4 -0.5 90
2019-06-27 04:00:00 15 5 Nordeste 14 Nordeste 0 965.2 -0.6 88
2019-06-27 03:00:00 15.1 5 Este 9 Este 0 965.5 -0.4 92
2019-06-27 02:00:00 15 0 Calma 4 Noroeste 0 965.9 0 89
2019-06-27 01:00:00 15.8 3 Oeste 7 Nordeste 0 965.8 0.4 87
2019-06-27 00:00:00 17.7 2 Noroeste 10 Nordeste 0 965.9 0.9 82
2019-06-26 23:00:00 19.7 4 Nordeste 12 Noroeste 0 965.9 1.8 78
2019-06-26 22:00:00 21.2 4 Noroeste 17 Noroeste 0 965.4 1.8 68
2019-06-26 21:00:00 22.5 6 Noroeste 18 Noroeste 0 965 1.5 63
2019-06-26 20:00:00 23.9 8 Noroeste 22 Oeste 0 964.1 0.6 59
2019-06-26 19:00:00 25.2 9 Noroeste 20 Oeste 0 963.6 0.1 57
2019-06-26 18:00:00 25.3 11 Oeste 28 Oeste 0 963.5 0.2 58
2019-06-26 17:00:00 25.8 14 Sudoeste 30 Oeste 0 963.5 0.2 56
2019-06-26 16:00:00 24.9 11 Oeste 30 Sudoeste 0 963.5 0.2 59
2019-06-26 15:00:00 25.8 13 Sudoeste 34 Sudoeste 0 963.3 0.1 54
2019-06-26 14:00:00 25 16 Sudoeste 32 Oeste 0 963.3 0.5 60
2019-06-26 13:00:00 24.4 12 Sudoeste 26 Sudoeste 0 963.3 0.5 64
2019-06-26 12:00:00 22.5 11 Sudoeste 21 Sudoeste 0 963.2 0.7 72
2019-06-26 11:00:00 20.9 4 Oeste 13 Nordeste 0 962.8 0.1 74
2019-06-26 10:00:00 17.8 4 Nordeste 9 Nordeste 0 962.8 0.1 88
2019-06-26 09:00:00 16.2 5 Nordeste 10 Este 0 962.5 -0.8 93
2019-06-26 08:00:00 15.7 3 Nordeste 10 Este 0 962.7 -0.8 95
2019-06-26 07:00:00 15.2 7 Nordeste 18 Nordeste 0 962.7 -1.5 96
2019-06-26 06:00:00 15.3 4 Nordeste 18 Nordeste 0 963.3 -1.2 95
2019-06-26 05:00:00 15.2 8 Nordeste 15 Nordeste 0 963.5 -2.2 96
2019-06-26 04:00:00 15.1 3 Nordeste 12 Nordeste 0 964.2 -1.4 96
2019-06-26 03:00:00 15 4 Nordeste 12 Nordeste 0 964.5 -1.5 95
2019-06-26 02:00:00 15.4 4 Nordeste 14 Este 0 965.7 0.5 94
2019-06-26 01:00:00 15.4 9 Nordeste 18 Este 0 965.6 0.3 93
2019-06-26 00:00:00 15.9 4 Norte 10 Norte 0 966 0.6 91
2019-06-25 23:00:00 15.9 4 Nordeste 19 Nordeste 0 965.2 1 91
2019-06-25 22:00:00 17 12 Nordeste 23 Nordeste 0 965.3 0.7 86
2019-06-25 21:00:00 19.4 5 Nordeste 27 Nordeste 0 965.4 0.5 75
2019-06-25 20:00:00 22 13 Nordeste 21 Nordeste 0 964.2 -0.9 64
2019-06-25 19:00:00 23.3 7 Nordeste 14 Nordeste 0 964.6 -0.6 50
2019-06-25 18:00:00 22.9 6 Nordeste 14 Nordeste 0 964.9 -0.3 52
2019-06-25 17:00:00 23.3 5 Nordeste 13 Este 0 965.1 -0.7 50
2019-06-25 16:00:00 23.3 5 Sudoeste 14 Oeste 0 965.2 -0.4 49
2019-06-25 15:00:00 22.9 5 Oeste 15 Oeste 0 965.2 -0.3 48
2019-06-25 14:00:00 22.2 8 Sudoeste 15 Sudoeste 0 965.8 0.4 50
2019-06-25 13:00:00 21.1 9 Sudoeste 18 Sudoeste 0 965.6 0 57
2019-06-25 12:00:00 19.9 9 Oeste 15 Sudoeste 0 965.5 0.2 70
2019-06-25 11:00:00 17.9 4 Noroeste 6 Noroeste 0 965.4 0.5 82
2019-06-25 10:00:00 15.6 4 Este 8 Este 0 965.6 0.8 89
2019-06-25 09:00:00 14.3 2 Oeste 7 Este 0 965.3 0.7 94
2019-06-25 08:00:00 13.5 4 Sudeste 5 Este 0 964.9 0.6 97
2019-06-25 07:00:00 13.4 0 Calma 5 Oeste 0 964.8 0.1 96
2019-06-25 06:00:00 13.2 3 Oeste 5 Oeste 0 964.6 -0.1 95
2019-06-25 05:00:00 13.2 0 Calma 4 Sudoeste 0 964.3 -0.4 94
2019-06-25 04:00:00 13.7 0 Calma 4 Sudeste 0 964.7 -0.2 93
2019-06-25 03:00:00 13.5 0 Calma 5 Este 0 964.7 -0.1 93
2019-06-25 02:00:00 13.2 0 Calma 7 Sudeste 0 964.7 0.2 93
2019-06-25 01:00:00 13.5 2 Sudoeste 5 Sudoeste 0 964.9 1.2 90
2019-06-25 00:00:00 15.4 2 Oeste 4 Norte 0 964.8 1.6 85
2019-06-24 23:00:00 17.4 2 Noroeste 8 Noroeste 0 964.5 1.8 81
2019-06-24 22:00:00 18.9 5 Oeste 10 Oeste 0 963.7 0.8 70
2019-06-24 21:00:00 20.2 2 Sur 6 Norte 0 963.2 0.3 67
2019-06-24 20:00:00 20.8 4 Noroeste 12 Noroeste 0 962.7 -0.1 59
2019-06-24 19:00:00 21.3 4 Noroeste 12 Sudoeste 0 962.9 0.1 60
2019-06-24 18:00:00 20.7 4 Oeste 10 Sudoeste 0 962.9 0.1 63
2019-06-24 17:00:00 20.8 8 Oeste 19 Oeste 0 962.8 -0.2 61
2019-06-24 16:00:00 21.4 5 Sur 12 Sudoeste 0 962.8 0.4 61
2019-06-24 15:00:00 19.8 7 Sudoeste 15 Noroeste 0 962.8 0.2 65
2019-06-24 14:00:00 18.6 6 Oeste 13 Sudoeste 0 963 0.2 76
2019-06-24 13:00:00 18.2 5 Noroeste 12 Noroeste 0 962.4 -0.4 83
2019-06-24 12:00:00 17.4 3 Norte 6 Nordeste 0.2 962.6 0 84
2019-06-24 11:00:00 16.4 3 Nordeste 5 Nordeste 0.2 962.8 0.6 90
2019-06-24 10:00:00 15.8 0 Calma 4 Sur 0 962.8 0.9 92
2019-06-24 09:00:00 15.2 2 Oeste 5 Oeste 0 962.6 1.1 92
2019-06-24 08:00:00 14.7 3 Oeste 6 Este 0 962.2 0 95
2019-06-24 07:00:00 14.5 3 Noroeste 8 Noroeste 0 961.9 -0.2 95
2019-06-24 06:00:00 14.9 4 Sudeste 8 Sudeste 0 961.5 -1 92
2019-06-24 05:00:00 15.2 3 Noroeste 10 Noroeste 0 962.2 -0.2 92
2019-06-24 04:00:00 15.5 2 Norte 6 Norte 0 962.1 -0.7 92
2019-06-24 03:00:00 15.6 3 Norte 8 Noroeste 0 962.5 -0.2 91
2019-06-24 02:00:00 15.8 3 Nordeste 8 Este 0 962.4 0.3 92
2019-06-24 01:00:00 15.7 3 Noroeste 7 Noroeste 0 962.8 1.1 90
2019-06-24 00:00:00 17 2 Oeste 4 Noroeste 0 962.7 1.6 84
2019-06-23 23:00:00 17.8 4 Noroeste 9 Noroeste 0 962.1 1.3 78
2019-06-23 22:00:00 18.8 3 Oeste 12 Norte 0 961.7 1.3 73
2019-06-23 21:00:00 20.2 5 Sudoeste 9 Sudoeste 0 961.1 0.8 63
2019-06-23 20:00:00 21.5 8 Sudoeste 20 Oeste 0 960.8 0.2 50
2019-06-23 19:00:00 22.9 12 Sudoeste 24 Sudoeste 0 960.4 -0.3 56
2019-06-23 18:00:00 24.2 8 Sudoeste 27 Sudoeste 0 960.3 -0.2 57
2019-06-23 17:00:00 23.3 10 Sudoeste 27 Oeste 0 960.6 -0.2 58
2019-06-23 16:00:00 21.5 13 Sudoeste 27 Oeste 0 960.7 0 62
2019-06-23 15:00:00 21.3 15 Sudoeste 27 Oeste 0 960.5 0 66
2019-06-23 14:00:00 19.4 13 Sudoeste 26 Oeste 0 960.8 0.5 79
2019-06-23 13:00:00 18.1 10 Sudoeste 19 Oeste 0 960.7 1 85
2019-06-23 12:00:00 17.7 10 Sudoeste 22 Sur 0 960.5 0.9 85
2019-06-23 11:00:00 15.7 5 Sudoeste 22 Sudoeste 0 960.3 1.2 94
2019-06-23 10:00:00 14.6 7 Sudoeste 20 Oeste 0.8 959.7 0.2 96
2019-06-23 09:00:00 14.1 8 Sudoeste 17 Sudoeste 0 959.6 0.1 93
2019-06-23 08:00:00 13.3 3 Sudeste 8 Sudoeste 0 959.1 -0.8 95
2019-06-23 07:00:00 12.3 5 Sudoeste 11 Sudoeste 0 959.5 -0.7 95
2019-06-23 06:00:00 12.3 4 Sudoeste 14 Oeste 0.4 959.5 -0.6 95
2019-06-23 05:00:00 12.4 6 Oeste 22 Sur 3 959.9 -0.1 95
2019-06-23 04:00:00 12.6 8 Sur 32 Sur 4.4 960.2 0 91
2019-06-23 03:00:00 13.6 10 Sudoeste 21 Sur 1.8 960.1 -0.3 85
2019-06-23 02:00:00 15.7 6 Sudoeste 14 Oeste 0.2 960 -0.7 80
2019-06-23 01:00:00 16.1 3 Sudeste 5 Noroeste 0 960.2 -0.3 92
2019-06-23 00:00:00 16.8 3 Sudoeste 6 Sudoeste 0 960.4 -0.3 89
2019-06-22 23:00:00 18.1 3 Noroeste 8 Sudeste 0 960.7 0.1 86
2019-06-22 22:00:00 19 3 Sudeste 7 Sudeste 0 960.5 0 85
2019-06-22 21:00:00 20.2 0 Calma 6 Oeste 0 960.7 0.2 76
2019-06-22 20:00:00 21.1 3 Noroeste 11 Noroeste 0 960.6 0.3 71
2019-06-22 19:00:00 22.4 3 Noroeste 9 Noroeste 0 960.5 0.1 70
2019-06-22 18:00:00 23.3 3 Norte 9 Norte 0 960.5 -0.4 58
2019-06-22 17:00:00 24 4 Norte 23 Sudoeste 0 960.3 -1 56
2019-06-22 16:00:00 25.6 7 Oeste 22 Oeste 0 960.4 -1.4 46
2019-06-22 15:00:00 25.1 9 Sudoeste 22 Sudoeste 0 960.9 -1.5 50
2019-06-22 14:00:00 23.4 6 Oeste 16 Oeste 0 961.3 -1.4 57
2019-06-22 13:00:00 21.4 6 Oeste 17 Sudoeste 0 961.8 -0.7 61
2019-06-22 12:00:00 19.5 5 Sudoeste 17 Sudoeste 0 962.4 -0.4 65
2019-06-22 11:00:00 16.6 3 Sur 12 Noroeste 0 962.7 -0.3 80
2019-06-22 10:00:00 14.9 5 Noroeste 10 Noroeste 0 962.5 -0.6 88
2019-06-22 09:00:00 12.3 3 Este 5 Nordeste 0 962.8 -0.8 96
2019-06-22 08:00:00 11.2 0 Calma 3 Sur 0 963 -1 95
2019-06-22 07:00:00 11 0 Calma 4 Sur 0 963.1 -1.5 94
2019-06-22 06:00:00 11.2 0 Calma 6 Sudeste 0 963.6 -1.2 96
2019-06-22 05:00:00 11.2 2 Sur 6 Sudoeste 0 964 -1.4 97
2019-06-22 04:00:00 11.3 3 Sudoeste 7 Sudoeste 0 964.6 -1.2 97
2019-06-22 03:00:00 11.8 3 Sudoeste 6 Oeste 0 964.8 -1.5 97
2019-06-22 02:00:00 11 0 Calma 6 Sudeste 0 965.4 -1.4 96
2019-06-22 01:00:00 11.4 3 Sudeste 6 Oeste 0 965.8 -0.8 92
2019-06-22 00:00:00 12.1 0 Calma 6 Nordeste 0 966.3 -0.2 92
2019-06-21 23:00:00 13 3 Nordeste 11 Norte 0 966.8 0.4 89
2019-06-21 22:00:00 14.5 3 Nordeste 24 Este 0 966.6 0.2 85
2019-06-21 21:00:00 16.8 6 Nordeste 23 Este 0 966.5 -0.4 76
2019-06-21 20:00:00 18.6 9 Nordeste 24 Nordeste 0 966.4 -0.2 70
2019-06-21 19:00:00 19.4 9 Nordeste 25 Nordeste 0 966.4 -0.6 64
2019-06-21 18:00:00 20 9 Nordeste 19 Este 0 966.9 -0.2 64
2019-06-21 17:00:00 20.8 8 Nordeste 21 Nordeste 0 966.6 -1 60
2019-06-21 16:00:00 20.3 8 Nordeste 18 Nordeste 0 967 -0.7 63
2019-06-21 15:00:00 20.3 5 Este 20 Este 0 967.1 -1.3 65
2019-06-21 14:00:00 18.4 7 Nordeste 22 Nordeste 0 967.6 -0.5 69
2019-06-21 13:00:00 17.3 12 Nordeste 23 Este 0 967.7 -0.4 74
2019-06-21 12:00:00 14.1 9 Nordeste 21 Nordeste 0 968.4 0.5 83
2019-06-21 11:00:00 13.4 11 Nordeste 20 Nordeste 0 968.1 0.6 85
2019-06-21 10:00:00 13 8 Nordeste 21 Nordeste 0 968.1 0.9 89
2019-06-21 09:00:00 12.6 7 Nordeste 17 Nordeste 0 967.9 0.8 90
2019-06-21 08:00:00 12.2 10 Nordeste 17 Nordeste 0 967.5 0.5 90
2019-06-21 07:00:00 12.5 3 Nordeste 9 Este 0 967.2 0.1 93
2019-06-21 06:00:00 12.7 0 Calma 17 Este 0 967.1 -0.2 90
2019-06-21 05:00:00 12.5 4 Nordeste 14 Nordeste 0 967 -0.1 92
2019-06-21 04:00:00 12.6 3 Nordeste 10 Nordeste 0 967.1 -0.2 92
2019-06-21 03:00:00 12.6 3 Nordeste 9 Este 0 967.3 0.4 91
2019-06-21 02:00:00 12.5 4 Nordeste 10 Este 0 967.1 0.7 91
2019-06-21 01:00:00 12.5 2 Nordeste 12 Este 0 967.3 1 90
2019-06-21 00:00:00 12.5 7 Nordeste 18 Nordeste 0 966.9 0.8 89
2019-06-20 23:00:00 12.3 4 Nordeste 23 Nordeste 0 966.4 0.4 89
2019-06-20 22:00:00 13.4 9 Nordeste 24 Este 0 966.3 0.4 83
2019-06-20 21:00:00 14.2 11 Nordeste 24 Nordeste 0 966.1 0.6 80
2019-06-20 20:00:00 14.3 13 Nordeste 28 Nordeste 0 966 0.5 79
2019-06-20 19:00:00 14.9 13 Nordeste 28 Este 0 965.9 0.1 82
2019-06-20 18:00:00 15.8 12 Nordeste 29 Este 0 965.5 -0.5 77
2019-06-20 17:00:00 16.2 10 Nordeste 29 Nordeste 0 965.5 -0.4 77
2019-06-20 16:00:00 16 8 Nordeste 25 Nordeste 0 965.8 -0.1 78
2019-06-20 15:00:00 15.6 6 Nordeste 22 Nordeste 0 966 0.3 80
2019-06-20 14:00:00 16.2 11 Nordeste 25 Nordeste 0 965.9 0.3 78
2019-06-20 13:00:00 15.8 13 Nordeste 30 Este 0 965.9 0.4 80
2019-06-20 12:00:00 14.9 11 Nordeste 24 Nordeste 0 965.7 0.5 86
2019-06-20 11:00:00 14.8 9 Nordeste 23 Este 0 965.6 0.4 87
2019-06-20 10:00:00 14.1 6 Nordeste 16 Nordeste 0 965.5 0.2 91
2019-06-20 09:00:00 13.6 8 Nordeste 15 Este 0 965.2 0.1 94
2019-06-20 08:00:00 13.1 6 Nordeste 10 Este 0 965.2 -0.1 96
2019-06-20 07:00:00 13.1 3 Noroeste 5 Norte 0 965.3 -0.1 95
2019-06-20 06:00:00 13.1 3 Este 6 Nordeste 0 965.1 -0.8 94
2019-06-20 05:00:00 13.1 3 Nordeste 8 Nordeste 0 965.3 -0.6 95
2019-06-20 04:00:00 13.6 3 Nordeste 6 Nordeste 0 965.4 -0.5 94
2019-06-20 03:00:00 14 2 Nordeste 5 Nordeste 0 965.9 0 95
2019-06-20 02:00:00 14.3 0 Calma 5 Noroeste 0 965.9 0.2 94
2019-06-20 01:00:00 14.3 2 Sudoeste 3 Sudoeste 0 965.9 0.4 94
2019-06-20 00:00:00 14.4 0 Calma 3 Sudoeste 0 965.9 0.5 94
2019-06-19 23:00:00 14.5 2 Sur 4 Sur 0 965.7 0.6 92
2019-06-19 22:00:00 14.9 0 Calma 5 Oeste 0.2 965.5 0.9 90
2019-06-19 21:00:00 15.4 3 Oeste 9 Noroeste 0.2 965.4 1 86
2019-06-19 20:00:00 15.7 5 Noroeste 18 Noroeste 0.2 965.1 1 79
2019-06-19 19:00:00 17.2 8 Noroeste 15 Noroeste 0 964.6 0.5 80
2019-06-19 18:00:00 17.3 6 Noroeste 13 Norte 0 964.4 0.6 82
2019-06-19 17:00:00 18.6 6 Oeste 18 Oeste 0 964.1 0.4 70
2019-06-19 16:00:00 18 7 Oeste 22 Sudoeste 0 964.1 0.6 77
2019-06-19 15:00:00 18.8 9 Sudoeste 24 Oeste 0 963.8 0.7 68
2019-06-19 14:00:00 17.2 9 Sudoeste 23 Sudoeste 0 963.7 0.7 73
2019-06-19 13:00:00 18.1 6 Sudoeste 20 Sudoeste 0 963.5 0.6 71
2019-06-19 12:00:00 17.5 10 Sudoeste 27 Sudoeste 0 963.1 0.7 72
2019-06-19 11:00:00 16.4 11 Sudoeste 23 Sudoeste 0 963 1.2 77
2019-06-19 10:00:00 15.2 10 Sudoeste 21 Sudoeste 0 962.9 1.5 80
2019-06-19 09:00:00 15.1 10 Sudoeste 18 Sudoeste 0 962.4 1.1 81
2019-06-19 08:00:00 14 6 Sudoeste 14 Sudoeste 0 961.8 0.8 87
2019-06-19 07:00:00 13.4 5 Sudoeste 18 Sur 0 961.4 0.4 87
2019-06-19 06:00:00 13.5 6 Sudoeste 17 Sudoeste 0 961.3 0.6 86
2019-06-19 05:00:00 14.1 8 Sudoeste 23 Sur 0 961 0.2 83
2019-06-19 04:00:00 13.6 10 Sudoeste 19 Sudoeste 0 961 0.2 85
2019-06-19 03:00:00 13.6 8 Sudoeste 24 Sudoeste 0 960.7 -0.1 84
2019-06-19 02:00:00 13.9 9 Sudoeste 24 Sudoeste 0 960.8 0.3 83
2019-06-19 01:00:00 14.3 10 Sudoeste 25 Sudoeste 0 960.8 0.8 81
2019-06-19 00:00:00 14.7 5 Sudoeste 21 Sudoeste 0 960.8 1.1 80
2019-06-18 23:00:00 15.6 6 Sudoeste 26 Sudoeste 0 960.5 1.2 77
2019-06-18 22:00:00 16.4 8 Sudoeste 22 Oeste 0 960 0.8 75
2019-06-18 21:00:00 17.5 8 Sudoeste 30 Sudoeste 0 959.7 0.4 74
2019-06-18 20:00:00 18.2 15 Sudoeste 30 Sudoeste 0 959.3 0.4 74
2019-06-18 19:00:00 18.2 15 Sudoeste 32 Oeste 0.2 959.2 1.2 81
2019-06-18 18:00:00 17 11 Sudoeste 28 Sudoeste 1.2 959.3 0.7 88
2019-06-18 17:00:00 19.1 14 Sudoeste 38 Sur 0 958.9 0.3 68
2019-06-18 16:00:00 21.1 10 Sur 34 Oeste 0 958 -1 57
2019-06-18 15:00:00 19.4 10 Sudoeste 26 Oeste 0 958.6 -0.4 67
2019-06-18 14:00:00 19.8 12 Sudoeste 33 Sudoeste 0 958.6 -0.9 64
2019-06-18 13:00:00 19.2 13 Sudoeste 31 Sudoeste 0 959 -0.6 70
2019-06-18 12:00:00 17.7 4 Sur 12 Sur 0 959 -0.2 75
2019-06-18 11:00:00 14.8 3 Sur 15 Sur 1 959.5 0.4 89
2019-06-18 10:00:00 14.2 4 Oeste 7 Oeste 0.8 959.6 0.4 93
2019-06-18 09:00:00 13.3 4 Sudeste 9 Este 0.6 959.2 0.2 97
2019-06-18 08:00:00 12.4 4 Sudeste 9 Sur 0.2 959.1 -0.2 98
2019-06-18 07:00:00 12.2 3 Oeste 5 Oeste 0 959.2 -0.6 98
2019-06-18 06:00:00 12 0 Calma 5 Sudeste 0 959 -1.7 96
2019-06-18 05:00:00 12.3 0 Calma 8 Oeste 0 959.3 -2.2 94
2019-06-18 04:00:00 13.1 3 Oeste 6 Oeste 0 959.8 -2.2 90
2019-06-18 03:00:00 14.8 0 Calma 6 Este 0 960.7 -0.7 90
2019-06-18 02:00:00 15.3 3 Nordeste 7 Este 0 961.5 0 92
2019-06-18 01:00:00 15.4 2 Sudoeste 12 Oeste 0 962 0.5 92
2019-06-18 00:00:00 15.6 3 Oeste 6 Sudeste 0 961.4 -0.5 91
2019-06-17 23:00:00 17.2 0 Calma 5 Sudeste 0 961.5 -0.7 84
2019-06-17 22:00:00 18.8 4 Este 8 Este 0 961.5 -1.1 79
2019-06-17 21:00:00 20.4 3 Nordeste 8 Nordeste 0 961.9 -0.7 71
2019-06-17 20:00:00 20.8 4 Norte 12 Norte 0 962.2 -1.2 68
2019-06-17 19:00:00 21.1 5 Noroeste 10 Oeste 0 962.6 -0.7 66
2019-06-17 18:00:00 20.8 3 Nordeste 13 Norte 0 962.6 -1.1 71
2019-06-17 17:00:00 20.9 5 Oeste 10 Noroeste 0 963.4 -0.2 68
2019-06-17 16:00:00 20.7 4 Norte 9 Norte 0 963.3 -0.8 67
2019-06-17 15:00:00 20.1 6 Noroeste 14 Noroeste 0 963.7 -0.8 68
2019-06-17 14:00:00 20.4 4 Nordeste 12 Noroeste 0 963.6 -0.9 67
2019-06-17 13:00:00 18.5 4 Oeste 13 Nordeste 0 964.1 -0.7 71
2019-06-17 12:00:00 15.7 4 Noroeste 9 Sur 0 964.5 -0.5 80
2019-06-17 11:00:00 14.2 4 Sur 9 Este 0 964.5 -0.6 85
2019-06-17 10:00:00 13.4 3 Sudeste 9 Este 0 964.8 -0.4 90
2019-06-17 09:00:00 12.7 4 Sudeste 7 Sudeste 0 965 -0.3 93
2019-06-17 08:00:00 12.5 3 Sudeste 8 Sudeste 0 965.1 -0.4 93
2019-06-17 07:00:00 12.6 4 Este 7 Nordeste 0 965.2 -0.5 93
2019-06-17 06:00:00 12.9 4 Este 8 Sudeste 0 965.3 -0.9 91
2019-06-17 05:00:00 13.3 2 Norte 5 Nordeste 0 965.5 -1 89
2019-06-17 04:00:00 13.1 3 Nordeste 8 Nordeste 0 965.7 -1 91
2019-06-17 03:00:00 13.1 3 Nordeste 8 Norte 0 966.2 -1 91
2019-06-17 02:00:00 13.3 2 Nordeste 13 Nordeste 0 966.5 -0.9 91
2019-06-17 01:00:00 13.2 6 Nordeste 13 Nordeste 0 966.7 -0.6 90
2019-06-17 00:00:00 13.1 5 Nordeste 17 Este 0 967.2 0.4 90
2019-06-16 23:00:00 13.1 7 Este 17 Nordeste 0 967.4 0.9 90
2019-06-16 22:00:00 13.9 6 Nordeste 24 Nordeste 0 967.3 1.1 85
2019-06-16 21:00:00 15.8 8 Nordeste 22 Nordeste 0 966.8 1.1 78
2019-06-16 20:00:00 17.6 10 Nordeste 25 Nordeste 0 966.5 0.8 70
2019-06-16 19:00:00 19.7 12 Nordeste 30 Nordeste 0 966.2 0 64
2019-06-16 18:00:00 22.8 10 Nordeste 25 Nordeste 0 965.7 -0.9 56
2019-06-16 17:00:00 24.7 5 Norte 19 Noroeste 0 965.7 -1.6 37
2019-06-16 16:00:00 23.7 8 Noroeste 16 Noroeste 0 966.2 -1.4 39
2019-06-16 15:00:00 22.5 4 Noroeste 15 Noroeste 0 966.6 -1.5 43
2019-06-16 14:00:00 20.3 5 Noroeste 18 Noroeste 0 967.3 -1.3 58
2019-06-16 13:00:00 18.6 5 Norte 12 Nordeste 0 967.6 -1.1 65
2019-06-16 12:00:00 15.2 4 Noroeste 9 Noroeste 0 968.1 -0.4 76
2019-06-16 11:00:00 11.6 4 Sudoeste 9 Oeste 0 968.6 0.3 89
2019-06-16 10:00:00 10 3 Sudeste 6 Este 0 968.7 0.4 95
2019-06-16 09:00:00 8.6 3 Oeste 5 Sudoeste 0 968.5 0.1 98
2019-06-16 08:00:00 7.5 0 Calma 5 Sudeste 0 968.3 -0.5 98
2019-06-16 07:00:00 7.4 0 Calma 3 Oeste 0 968.3 -0.7 97
2019-06-16 06:00:00 6.8 0 Calma 3 Sur 0 968.4 -0.9 95
2019-06-16 05:00:00 7 0 Calma 4 Sudeste 0 968.8 -0.9 94
2019-06-16 04:00:00 7.8 3 Sudeste 5 Sudeste 0 969 -1 97
2019-06-16 03:00:00 7.2 2 Sur 4 Sur 0 969.3 -0.8 92
2019-06-16 02:00:00 7.7 0 Calma 4 Sur 0 969.7 -0.1 89
2019-06-16 01:00:00 9 3 Sur 5 Sudeste 0 970 0.6 88
2019-06-16 00:00:00 10.1 2 Sur 7 Sudeste 0 970.1 0.8 86